KBNO/BNO METAR and TAF weather

Enter ICAO airport designator
Station Type Date Time Source
KBNO METAR 2019/04/19 21:53 UTC NOAA

KBNO 192153Z AUTO 17011G18KT 10SM CLR 25/03 A2988 RMK AO2 SLP094 T02500033


Station Type Date Time Source
KBNO Decoded METAR 2019/04/19 21:53 UTC NOAA

BURNS MUNICIPAL AIRPORT, OR, United States (KBNO) 43-36N 118-57W 1264M
Apr 19, 2019 - 05:53 PM EDT / 2019.04.19 2153 UTC
Wind: from the S (170 degrees) at 13 MPH (11 KT) gusting to 21 MPH (18 KT):0
Visibility: 10 mile(s):0
Sky conditions: clear
Temperature: 77.0 F (25.0 C)
Dew Point: 37.9 F (3.3 C)
Relative Humidity: 24%
Pressure (altimeter): 29.88 in. Hg (1011 hPa)
ob: KBNO 192153Z AUTO 17011G18KT 10SM CLR 25/03 A2988 RMK AO2 SLP094 T02500033
cycle: 22

Station Type Date Time Source
KBNO TAF 2019/04/19 18:45 UTC NOAA

TAF KBNO 191742Z 1918/2018 21011KT P6SM SCT100
FM200400 28012KT P6SM VCSH SCT070 BKN100
FM200900 25010KT P6SM -SHRA SCT030 BKN050

Example: see airport list